createdAt,value
2022-07-29T00:02:16.730Z,1.83
2022-07-29T00:04:43.257Z,1.60
2022-07-29T00:07:09.766Z,2.07
2022-07-29T00:09:43.023Z,2.13
2022-07-29T00:12:18.056Z,1.97
2022-07-29T00:14:53.501Z,1.50
2022-07-29T00:17:19.921Z,2.00
2022-07-29T00:19:46.577Z,2.10
2022-07-29T00:22:12.973Z,2.13
2022-07-29T00:24:39.378Z,1.87
2022-07-29T00:27:05.911Z,1.57
2022-07-29T00:29:34.010Z,1.90
2022-07-29T00:32:01.449Z,1.80
2022-07-29T00:34:46.536Z,1.60
2022-07-29T00:37:12.928Z,1.77
2022-07-29T00:39:39.333Z,2.20
2022-07-29T00:42:06.327Z,2.37
2022-07-29T00:44:40.639Z,1.73
2022-07-29T00:47:07.783Z,1.67
2022-07-29T00:49:35.034Z,1.80
2022-07-29T00:52:06.018Z,1.77
2022-07-29T00:54:33.758Z,1.93
2022-07-29T00:57:01.455Z,1.90
2022-07-29T00:59:34.383Z,1.83
2022-07-29T01:02:01.577Z,1.73
2022-07-29T01:04:28.089Z,1.30
2022-07-29T01:06:55.420Z,1.70
2022-07-29T01:09:42.818Z,1.90
2022-07-29T01:12:09.588Z,2.03
2022-07-29T01:14:36.698Z,1.67
2022-07-29T01:17:14.109Z,1.50
2022-07-29T01:20:03.554Z,1.90
2022-07-29T01:22:36.274Z,2.00
2022-07-29T01:25:13.496Z,1.30
2022-07-29T01:27:58.865Z,1.90
2022-07-29T01:30:26.564Z,1.77
2022-07-29T01:32:59.819Z,2.03
2022-07-29T01:35:31.709Z,1.97
2022-07-29T01:38:13.480Z,2.00
2022-07-29T01:40:48.857Z,2.17
2022-07-29T01:43:27.287Z,1.93
2022-07-29T01:46:07.681Z,1.40
2022-07-29T01:48:49.673Z,1.80
2022-07-29T01:51:30.087Z,1.93
2022-07-29T01:54:03.380Z,1.90
2022-07-29T01:56:34.609Z,1.67
2022-07-29T01:59:03.748Z,2.00
2022-07-29T02:01:33.514Z,1.90
2022-07-29T02:04:03.465Z,1.80
2022-07-29T02:06:33.171Z,2.30
2022-07-29T02:09:00.402Z,2.07
2022-07-29T02:11:26.853Z,1.40
2022-07-29T02:13:55.651Z,1.87
2022-07-29T02:16:23.798Z,1.57
2022-07-29T02:18:53.375Z,1.40
2022-07-29T02:21:23.911Z,2.03
2022-07-29T02:23:52.075Z,2.00
2022-07-29T02:26:21.211Z,2.23
2022-07-29T02:28:50.540Z,2.37
2022-07-29T02:31:21.720Z,1.47
2022-07-29T02:33:50.569Z,1.80
2022-07-29T02:36:17.764Z,1.83
2022-07-29T02:38:52.463Z,1.80
2022-07-29T02:41:28.422Z,1.97
2022-07-29T02:44:02.985Z,1.67
2022-07-29T02:46:33.907Z,1.90
2022-07-29T02:49:10.709Z,1.67
2022-07-29T02:51:45.681Z,2.20
2022-07-29T02:54:31.902Z,1.80
2022-07-29T02:57:01.844Z,1.63
2022-07-29T02:59:31.680Z,1.87
2022-07-29T03:02:00.525Z,1.93
2022-07-29T03:04:29.397Z,2.50
2022-07-29T03:06:59.632Z,1.93
2022-07-29T03:09:26.888Z,1.90
2022-07-29T03:11:55.357Z,2.00
2022-07-29T03:14:23.926Z,2.03
2022-07-29T03:16:51.959Z,2.10
2022-07-29T03:19:19.251Z,1.97
2022-07-29T03:21:45.657Z,2.37
2022-07-29T03:24:25.488Z,2.77
2022-07-29T03:26:51.908Z,1.97
2022-07-29T03:29:18.305Z,2.03
2022-07-29T03:31:46.383Z,2.30
2022-07-29T03:34:15.192Z,2.20
2022-07-29T03:36:41.797Z,2.10
2022-07-29T03:39:11.413Z,2.27
2022-07-29T03:41:40.120Z,2.30
2022-07-29T03:44:08.487Z,2.10
2022-07-29T03:46:36.484Z,2.10
2022-07-29T03:49:05.147Z,1.93
2022-07-29T03:51:33.916Z,2.97
2022-07-29T03:54:06.399Z,2.43
2022-07-29T03:56:40.505Z,2.63
2022-07-29T03:59:08.363Z,3.00
2022-07-29T04:01:35.180Z,2.27
2022-07-29T04:04:05.665Z,1.80
2022-07-29T04:06:41.978Z,2.80
2022-07-29T04:09:09.829Z,2.20
2022-07-29T04:12:02.688Z,2.70
2022-07-29T04:14:25.583Z,2.07
2022-07-29T04:16:52.024Z,2.40
2022-07-29T04:19:18.426Z,2.03
2022-07-29T04:21:46.105Z,2.37
2022-07-29T04:24:12.819Z,2.33
2022-07-29T04:26:39.490Z,2.20
2022-07-29T04:29:06.025Z,2.33
2022-07-29T04:31:32.492Z,3.07
2022-07-29T04:33:58.922Z,2.20
2022-07-29T04:36:28.931Z,1.90
2022-07-29T04:38:56.272Z,2.70
2022-07-29T04:41:22.679Z,2.73
2022-07-29T04:43:50.053Z,2.20
2022-07-29T04:46:16.624Z,3.03
2022-07-29T04:48:43.134Z,2.70
2022-07-29T04:51:09.654Z,2.57
2022-07-29T04:53:36.120Z,2.60
2022-07-29T04:56:03.097Z,3.13
2022-07-29T04:58:29.486Z,2.40
2022-07-29T05:00:55.980Z,2.47
2022-07-29T05:03:22.397Z,2.50
2022-07-29T05:05:48.796Z,2.37
2022-07-29T05:08:15.302Z,2.43
2022-07-29T05:10:41.721Z,2.50
2022-07-29T05:13:08.670Z,2.57
2022-07-29T05:15:36.283Z,3.13
2022-07-29T05:18:03.432Z,2.57
2022-07-29T05:20:30.519Z,2.43
2022-07-29T05:23:00.600Z,2.50
2022-07-29T05:25:43.585Z,2.77
2022-07-29T05:28:11.387Z,2.30
2022-07-29T05:30:37.925Z,2.37
2022-07-29T05:33:04.494Z,2.30
2022-07-29T05:35:30.937Z,2.00
2022-07-29T05:37:57.334Z,2.33
2022-07-29T05:40:23.847Z,2.80
2022-07-29T05:42:50.240Z,2.27
2022-07-29T05:45:16.638Z,2.50
2022-07-29T05:47:43.157Z,2.70
2022-07-29T05:50:09.758Z,3.07
2022-07-29T05:52:36.199Z,2.50
2022-07-29T05:55:05.248Z,2.70
2022-07-29T05:57:31.967Z,2.57
2022-07-29T05:59:58.561Z,2.80
2022-07-29T06:02:25.193Z,2.30
2022-07-29T06:04:51.905Z,2.70
2022-07-29T06:07:18.456Z,3.03
2022-07-29T06:09:44.862Z,2.77
2022-07-29T06:12:11.322Z,2.30
2022-07-29T06:14:39.118Z,2.87
2022-07-29T06:17:06.589Z,4.93
2022-07-29T06:19:35.444Z,2.73
2022-07-29T06:22:01.853Z,3.03
2022-07-29T06:24:28.373Z,2.27
2022-07-29T06:26:54.832Z,2.47
2022-07-29T06:29:21.242Z,2.23
2022-07-29T06:31:47.646Z,2.97
2022-07-29T06:34:14.499Z,2.70
2022-07-29T06:36:41.817Z,2.83
2022-07-29T06:39:09.049Z,2.77
2022-07-29T06:41:36.494Z,2.63
2022-07-29T06:44:03.217Z,2.40
2022-07-29T06:46:29.823Z,2.90
2022-07-29T06:48:56.372Z,2.50
2022-07-29T06:51:24.118Z,2.60
2022-07-29T06:53:59.397Z,2.80
2022-07-29T06:56:27.977Z,2.70
2022-07-29T06:58:54.420Z,2.87
2022-07-29T07:01:20.949Z,2.60
2022-07-29T07:03:48.215Z,2.70
2022-07-29T07:06:15.209Z,2.63
2022-07-29T07:08:42.003Z,2.87
2022-07-29T07:11:08.446Z,2.67
2022-07-29T07:13:36.747Z,2.97
2022-07-29T07:16:04.241Z,2.60
2022-07-29T07:18:31.030Z,2.80
2022-07-29T07:20:57.861Z,2.70
2022-07-29T07:23:24.752Z,3.13
2022-07-29T07:25:51.249Z,2.53
2022-07-29T07:28:17.877Z,2.77
2022-07-29T07:30:45.921Z,2.97
2022-07-29T07:33:12.389Z,2.77
2022-07-29T07:35:38.771Z,2.80
2022-07-29T07:38:06.828Z,3.10
2022-07-29T07:40:33.415Z,2.80
2022-07-29T07:42:59.817Z,2.57
2022-07-29T07:45:26.405Z,3.00
2022-07-29T07:47:52.825Z,3.30
2022-07-29T07:50:19.493Z,2.60
2022-07-29T07:52:54.621Z,2.43
2022-07-29T07:55:21.341Z,3.00
2022-07-29T07:57:48.147Z,3.40
2022-07-29T08:00:15.733Z,2.23
2022-07-29T08:02:43.910Z,2.63
2022-07-29T08:05:13.015Z,3.03
2022-07-29T08:07:40.220Z,2.87
2022-07-29T08:10:07.028Z,2.77
2022-07-29T08:12:33.499Z,2.57
2022-07-29T08:14:59.992Z,3.00
2022-07-29T08:17:27.530Z,3.00
2022-07-29T08:19:53.977Z,2.70
2022-07-29T08:22:20.666Z,2.70
2022-07-29T08:24:57.131Z,2.90
2022-07-29T08:27:43.055Z,2.60
2022-07-29T08:30:11.125Z,2.83
2022-07-29T08:32:53.238Z,3.13
2022-07-29T08:35:21.856Z,2.70
2022-07-29T08:37:48.434Z,2.70
2022-07-29T08:40:17.775Z,3.00
2022-07-29T08:42:44.492Z,2.43
2022-07-29T08:45:11.255Z,2.80
2022-07-29T08:47:40.696Z,3.17
2022-07-29T08:50:11.185Z,2.50
2022-07-29T08:52:40.525Z,3.10
2022-07-29T08:55:08.933Z,4.07
2022-07-29T08:57:37.246Z,3.17
2022-07-29T09:00:07.937Z,3.07
2022-07-29T09:02:42.568Z,2.67
2022-07-29T09:05:09.490Z,3.00
2022-07-29T09:07:36.210Z,2.70
2022-07-29T09:10:03.290Z,3.00
2022-07-29T09:12:33.687Z,2.67
2022-07-29T09:15:03.949Z,2.43
2022-07-29T09:17:46.597Z,3.00
2022-07-29T09:20:18.847Z,2.53
2022-07-29T09:22:50.035Z,2.90
2022-07-29T09:25:35.576Z,2.50
2022-07-29T09:28:12.487Z,2.83
2022-07-29T09:30:52.134Z,2.87
2022-07-29T09:33:19.652Z,2.50
2022-07-29T09:35:57.074Z,2.70
2022-07-29T09:38:24.506Z,2.47
2022-07-29T09:41:05.812Z,2.33
2022-07-29T09:43:33.334Z,2.50
2022-07-29T09:46:15.455Z,2.33
2022-07-29T09:48:42.138Z,2.50
2022-07-29T09:51:22.142Z,2.27
2022-07-29T09:53:51.312Z,2.60
2022-07-29T09:56:20.181Z,2.57
2022-07-29T09:58:46.592Z,2.70
2022-07-29T10:01:13.318Z,2.73
2022-07-29T10:03:53.544Z,2.47
2022-07-29T10:06:19.941Z,2.77
2022-07-29T10:08:47.400Z,2.80
2022-07-29T10:11:18.573Z,2.77
2022-07-29T10:13:47.791Z,2.67
2022-07-29T10:16:16.736Z,2.53
2022-07-29T10:18:47.856Z,2.90
2022-07-29T10:21:22.531Z,3.20
2022-07-29T10:24:01.768Z,2.97
2022-07-29T10:26:30.353Z,3.00
2022-07-29T10:28:56.791Z,2.60
2022-07-29T10:31:35.862Z,3.00
2022-07-29T10:34:17.927Z,2.47
2022-07-29T10:37:03.559Z,3.30
2022-07-29T10:40:43.730Z,3.30
2022-07-29T10:43:23.355Z,3.00
2022-07-29T10:45:57.718Z,3.20
2022-07-29T10:48:24.822Z,3.07
2022-07-29T10:51:05.410Z,2.97
2022-07-29T10:53:53.552Z,3.20
2022-07-29T10:56:28.399Z,2.87
2022-07-29T10:59:22.846Z,2.93
2022-07-29T11:01:53.682Z,3.07
2022-07-29T11:04:46.945Z,3.40
2022-07-29T11:07:13.702Z,3.00
2022-07-29T11:09:41.711Z,3.00
2022-07-29T11:12:39.260Z,2.83
2022-07-29T11:15:17.967Z,3.40
2022-07-29T11:18:01.177Z,3.43
2022-07-29T11:20:49.709Z,3.50
2022-07-29T11:23:20.358Z,3.60
2022-07-29T11:26:28.310Z,2.90
2022-07-29T11:28:58.516Z,3.90
2022-07-29T11:31:47.263Z,3.63
2022-07-29T11:34:46.306Z,3.17
2022-07-29T11:37:13.647Z,3.07
2022-07-29T11:39:44.473Z,2.57
2022-07-29T11:42:32.552Z,8.70
2022-07-29T11:45:42.624Z,2.37
2022-07-29T11:48:05.303Z,2.97
2022-07-29T11:50:45.711Z,3.20
2022-07-29T11:53:16.269Z,2.80
2022-07-29T11:55:51.541Z,3.07
2022-07-29T11:58:24.881Z,2.33
2022-07-29T12:00:52.569Z,2.57
2022-07-29T12:03:33.282Z,3.37
2022-07-29T12:06:04.573Z,2.90
2022-07-29T12:08:41.670Z,2.80
2022-07-29T12:11:17.594Z,2.60
2022-07-29T12:13:47.024Z,3.20
2022-07-29T12:16:15.921Z,3.03
2022-07-29T12:18:42.383Z,3.13
2022-07-29T12:21:09.310Z,3.33
2022-07-29T12:23:38.897Z,2.77
2022-07-29T12:26:07.325Z,2.73
2022-07-29T12:28:39.094Z,2.53
2022-07-29T12:31:05.820Z,2.83
2022-07-29T12:33:32.323Z,2.60
2022-07-29T12:36:14.154Z,2.60
2022-07-29T12:38:43.994Z,2.10
2022-07-29T12:41:11.219Z,2.40
2022-07-29T12:43:37.777Z,2.57
2022-07-29T12:46:15.408Z,3.00
2022-07-29T12:48:44.245Z,2.87
2022-07-29T12:51:13.282Z,2.50
2022-07-29T12:53:39.792Z,2.57
2022-07-29T12:56:20.574Z,2.43
2022-07-29T12:58:51.084Z,2.60
2022-07-29T13:01:20.419Z,3.20
2022-07-29T13:04:03.775Z,3.00
2022-07-29T13:06:35.724Z,2.63
2022-07-29T13:09:14.513Z,2.10
2022-07-29T13:11:50.348Z,3.30
2022-07-29T13:14:42.635Z,2.97
2022-07-29T13:17:13.263Z,2.87
2022-07-29T13:19:42.362Z,2.87
2022-07-29T13:22:11.064Z,3.90
2022-07-29T13:25:02.869Z,3.40
2022-07-29T13:27:32.961Z,3.03
2022-07-29T13:30:01.349Z,3.03
2022-07-29T13:32:29.963Z,3.40
2022-07-29T13:34:57.922Z,3.20
2022-07-29T13:37:24.998Z,3.27
2022-07-29T13:39:53.205Z,3.60
2022-07-29T13:42:20.407Z,2.60
2022-07-29T13:44:46.840Z,2.77
2022-07-29T13:47:13.777Z,2.73
2022-07-29T13:49:40.190Z,2.93
2022-07-29T13:52:08.242Z,3.20
2022-07-29T13:54:41.986Z,3.13
2022-07-29T13:57:09.506Z,2.43
2022-07-29T13:59:36.123Z,2.83
2022-07-29T14:02:02.802Z,2.70
2022-07-29T14:04:29.397Z,4.53
2022-07-29T14:06:55.845Z,2.77
2022-07-29T14:09:22.244Z,2.60
2022-07-29T14:11:50.594Z,3.13
2022-07-29T14:14:17.025Z,3.80
2022-07-29T14:16:50.449Z,3.27
2022-07-29T14:19:18.731Z,3.10
2022-07-29T14:21:45.754Z,2.80
2022-07-29T14:24:21.529Z,2.67
2022-07-29T14:26:49.666Z,3.03
2022-07-29T14:29:16.114Z,2.90
2022-07-29T14:31:44.033Z,3.10
2022-07-29T14:34:10.502Z,2.40
2022-07-29T14:36:36.932Z,2.70
2022-07-29T14:39:03.574Z,2.33
2022-07-29T14:41:30.513Z,2.37
2022-07-29T14:43:56.905Z,2.00
2022-07-29T14:46:23.375Z,2.83
2022-07-29T14:48:49.851Z,2.67
2022-07-29T14:51:16.517Z,2.93
2022-07-29T14:53:42.948Z,3.57
2022-07-29T14:56:35.001Z,2.50
2022-07-29T14:58:56.136Z,2.70
2022-07-29T15:01:22.666Z,2.33
2022-07-29T15:03:49.156Z,2.53
2022-07-29T15:06:15.611Z,2.20
2022-07-29T15:08:42.007Z,2.70
2022-07-29T15:11:08.759Z,1.87
2022-07-29T15:13:35.542Z,1.90
2022-07-29T15:16:02.110Z,2.20
2022-07-29T15:18:28.530Z,2.27
2022-07-29T15:20:54.957Z,2.10
2022-07-29T15:23:21.388Z,2.40
2022-07-29T15:25:47.810Z,2.20
2022-07-29T15:28:14.240Z,2.37
2022-07-29T15:30:43.508Z,2.83
2022-07-29T15:33:10.481Z,2.33
2022-07-29T15:35:40.602Z,2.70
2022-07-29T15:38:07.834Z,2.50
2022-07-29T15:40:34.380Z,2.17
2022-07-29T15:43:08.340Z,2.37
2022-07-29T15:45:40.294Z,2.20
2022-07-29T15:48:08.543Z,3.07
2022-07-29T15:50:35.490Z,2.40
2022-07-29T15:53:02.259Z,2.20
2022-07-29T15:55:28.666Z,1.57
2022-07-29T15:57:59.986Z,3.23
2022-07-29T16:00:27.091Z,2.40
2022-07-29T16:02:53.502Z,2.33
2022-07-29T16:05:19.969Z,4.00
2022-07-29T16:07:46.480Z,3.93
2022-07-29T16:10:13.008Z,2.97
2022-07-29T16:12:39.387Z,2.80
2022-07-29T16:15:09.974Z,2.30
2022-07-29T16:17:37.736Z,2.33
2022-07-29T16:20:05.877Z,2.60
2022-07-29T16:22:32.333Z,2.57
2022-07-29T16:24:58.947Z,2.77
2022-07-29T16:27:35.607Z,3.30
2022-07-29T16:30:06.892Z,2.43
2022-07-29T16:32:33.481Z,2.73
2022-07-29T16:35:02.036Z,2.90
2022-07-29T16:37:33.532Z,3.27
2022-07-29T16:40:00.089Z,3.07
2022-07-29T16:42:45.442Z,3.37
2022-07-29T16:45:13.008Z,2.40
2022-07-29T16:47:39.430Z,2.77
2022-07-29T16:50:06.349Z,2.20
2022-07-29T16:52:32.775Z,3.00
2022-07-29T16:54:59.231Z,2.70
2022-07-29T16:57:25.718Z,2.73
2022-07-29T16:59:52.214Z,2.70
2022-07-29T17:02:18.991Z,2.70
2022-07-29T17:04:45.516Z,2.20
2022-07-29T17:07:12.019Z,2.40
2022-07-29T17:09:38.503Z,2.00
2022-07-29T17:12:05.410Z,2.47
2022-07-29T17:14:32.104Z,2.27
2022-07-29T17:17:02.151Z,2.23
2022-07-29T17:19:32.085Z,2.73
2022-07-29T17:22:08.452Z,2.60
2022-07-29T17:24:35.677Z,2.67
2022-07-29T17:27:02.128Z,2.07
2022-07-29T17:29:28.619Z,2.00
2022-07-29T17:31:55.031Z,2.87
2022-07-29T17:34:21.483Z,2.47
2022-07-29T17:36:48.224Z,2.97
2022-07-29T17:39:14.634Z,2.37
2022-07-29T17:41:41.114Z,2.67
2022-07-29T17:44:09.363Z,2.57
2022-07-29T17:46:36.489Z,3.43
2022-07-29T17:49:03.200Z,2.10
2022-07-29T17:51:29.723Z,2.50
2022-07-29T17:53:56.139Z,2.10
2022-07-29T17:56:22.569Z,3.03
2022-07-29T17:58:49.005Z,3.17
2022-07-29T18:01:15.624Z,3.20
2022-07-29T18:03:42.737Z,3.23
2022-07-29T18:06:10.512Z,2.93
2022-07-29T18:08:38.892Z,2.77
2022-07-29T18:11:06.349Z,2.07
2022-07-29T18:13:33.192Z,2.43
2022-07-29T18:16:00.715Z,2.47
2022-07-29T18:18:27.749Z,2.33
2022-07-29T18:20:54.347Z,2.30
2022-07-29T18:23:21.215Z,3.00
2022-07-29T18:25:47.610Z,2.17
2022-07-29T18:28:14.265Z,1.90
2022-07-29T18:30:41.445Z,2.47
2022-07-29T18:33:22.824Z,2.10
2022-07-29T18:35:51.252Z,2.00
2022-07-29T18:38:18.130Z,2.60
2022-07-29T18:40:45.680Z,2.77
2022-07-29T18:43:13.202Z,2.17
2022-07-29T18:45:39.958Z,2.43
2022-07-29T18:48:08.363Z,2.80
2022-07-29T18:50:40.381Z,2.63
2022-07-29T18:53:06.870Z,2.40
2022-07-29T18:55:33.257Z,2.53
2022-07-29T18:57:59.689Z,3.83
2022-07-29T19:00:26.476Z,2.97
2022-07-29T19:02:53.164Z,2.57
2022-07-29T19:05:20.589Z,2.83
2022-07-29T19:07:46.982Z,3.00
2022-07-29T19:10:13.627Z,2.50
2022-07-29T19:12:40.054Z,2.90
2022-07-29T19:15:08.048Z,2.40
2022-07-29T19:17:34.540Z,2.20
2022-07-29T19:20:00.994Z,2.80
2022-07-29T19:22:27.766Z,3.03
2022-07-29T19:24:54.174Z,3.33
2022-07-29T19:27:20.649Z,2.43
2022-07-29T19:29:47.036Z,1.93
2022-07-29T19:32:14.495Z,2.60
2022-07-29T19:35:10.052Z,2.57
2022-07-29T19:37:37.305Z,2.60
2022-07-29T19:40:05.087Z,2.50
2022-07-29T19:42:31.547Z,2.77
2022-07-29T19:44:57.998Z,2.30
2022-07-29T19:47:24.456Z,2.80
2022-07-29T19:49:50.822Z,2.30
2022-07-29T19:52:17.283Z,2.37
2022-07-29T19:54:43.708Z,3.00
2022-07-29T19:57:10.124Z,2.43
2022-07-29T19:59:37.141Z,2.60
2022-07-29T20:02:03.702Z,2.40
2022-07-29T20:04:30.555Z,3.03
2022-07-29T20:07:01.356Z,1.80
2022-07-29T20:09:28.765Z,2.37
2022-07-29T20:11:55.186Z,2.20
2022-07-29T20:14:21.722Z,2.40
2022-07-29T20:16:48.806Z,2.60
2022-07-29T20:19:15.423Z,2.67
2022-07-29T20:21:42.083Z,2.40
2022-07-29T20:24:10.277Z,2.30
2022-07-29T20:26:36.858Z,2.53
2022-07-29T20:29:05.165Z,2.37
2022-07-29T20:31:32.413Z,2.50
2022-07-29T20:34:00.037Z,2.57
2022-07-29T20:36:26.880Z,2.17
2022-07-29T20:38:53.700Z,2.77
2022-07-29T20:41:20.233Z,2.93
2022-07-29T20:43:49.723Z,2.40
2022-07-29T20:46:16.228Z,2.93
2022-07-29T20:48:42.762Z,2.80
2022-07-29T20:51:09.259Z,2.40
2022-07-29T20:53:38.512Z,2.70
2022-07-29T20:56:05.561Z,2.70
2022-07-29T20:58:33.964Z,3.60
2022-07-29T21:01:01.203Z,2.83
2022-07-29T21:03:27.585Z,2.77
2022-07-29T21:05:54.041Z,2.23
2022-07-29T21:08:20.466Z,2.90
2022-07-29T21:10:47.047Z,2.70
2022-07-29T21:13:14.334Z,2.70
2022-07-29T21:15:46.265Z,3.30
2022-07-29T21:18:30.535Z,3.97
2022-07-29T21:21:00.675Z,3.07
2022-07-29T21:23:27.785Z,2.97
2022-07-29T21:25:54.576Z,2.60
2022-07-29T21:28:26.780Z,3.03
2022-07-29T21:30:54.106Z,3.20
2022-07-29T21:33:20.553Z,3.73
2022-07-29T21:36:10.550Z,3.20
2022-07-29T21:38:34.155Z,3.40
2022-07-29T21:41:01.076Z,3.40
2022-07-29T21:43:28.558Z,3.73
2022-07-29T21:45:56.223Z,3.67
2022-07-29T21:48:23.729Z,4.03
2022-07-29T21:50:51.030Z,3.23
2022-07-29T21:53:17.923Z,3.47
2022-07-29T21:55:50.596Z,3.40
2022-07-29T21:58:18.047Z,3.63
2022-07-29T22:00:45.205Z,3.40
2022-07-29T22:03:11.704Z,3.70
2022-07-29T22:05:38.201Z,4.00
2022-07-29T22:08:05.088Z,4.20
2022-07-29T22:10:31.871Z,3.80
2022-07-29T22:12:59.866Z,3.63
2022-07-29T22:15:27.450Z,3.83
2022-07-29T22:17:54.215Z,4.90
2022-07-29T22:20:21.235Z,4.20
2022-07-29T22:22:48.126Z,4.03
2022-07-29T22:25:15.072Z,4.60
2022-07-29T22:27:41.476Z,4.57
2022-07-29T22:30:08.343Z,4.60
2022-07-29T22:32:35.156Z,4.13
2022-07-29T22:35:01.555Z,3.97
2022-07-29T22:37:28.335Z,4.17
2022-07-29T22:39:54.770Z,3.50
2022-07-29T22:42:21.334Z,4.10
2022-07-29T22:44:47.766Z,4.00
2022-07-29T22:47:14.206Z,4.07
2022-07-29T22:49:40.656Z,4.20
2022-07-29T22:52:07.218Z,4.17
2022-07-29T22:54:33.645Z,4.10
2022-07-29T22:57:00.961Z,4.10
2022-07-29T22:59:27.581Z,4.03
2022-07-29T23:01:54.462Z,4.40
2022-07-29T23:04:23.638Z,3.73
2022-07-29T23:06:51.082Z,3.80
2022-07-29T23:09:18.913Z,4.30
2022-07-29T23:11:47.081Z,3.97
2022-07-29T23:14:13.570Z,3.80
2022-07-29T23:16:40.045Z,4.17
2022-07-29T23:19:06.443Z,4.27
2022-07-29T23:21:32.952Z,4.17
2022-07-29T23:23:59.332Z,4.43
2022-07-29T23:26:25.831Z,3.80
2022-07-29T23:28:52.226Z,3.80
2022-07-29T23:31:18.899Z,4.33
2022-07-29T23:33:45.362Z,4.87
2022-07-29T23:36:11.794Z,4.50
2022-07-29T23:38:41.105Z,3.90
2022-07-29T23:41:09.588Z,4.00
2022-07-29T23:43:37.157Z,3.70
2022-07-29T23:46:03.690Z,3.70
2022-07-29T23:48:31.861Z,4.60
2022-07-29T23:51:00.332Z,3.67
2022-07-29T23:53:27.582Z,3.90
2022-07-29T23:55:54.001Z,4.73
2022-07-29T23:58:20.442Z,3.50
